Time;durP1;ratioP1;P1;durP2;ratioP2;P2;SDS_P1;SDS_P2;PMS_P1;PMS_P2;Temp;Humidity;BMP_temperature;BMP_pressure;BME280_temperature;BME280_humidity;BME280_pressure;Samples;Min_cycle;Max_cycle;Signal;HPM_P1;HPM_P2
2022/01/15 00:01:39;;;;;;;6.28;4.47;;;;;;;;;;5056009;28;20032;-66
2022/01/15 00:04:05;;;;;;;6.18;4.43;;;;;;;;;;5068136;28;20025;-68
2022/01/15 00:06:31;;;;;;;5.82;4.60;;;;;;;;;;5075650;28;20033;-66
2022/01/15 00:08:57;;;;;;;7.00;4.47;;;;;;;;;;5071193;28;20029;-70
2022/01/15 00:11:23;;;;;;;5.55;4.30;;;;;;;;;;5083786;28;20031;-65
2022/01/15 00:13:56;;;;;;;5.57;4.70;;;;;;;;;;5078012;28;20023;-68
2022/01/15 00:16:33;;;;;;;4.40;3.90;;;;;;;;;;5075542;28;20029;-71
2022/01/15 00:19:08;;;;;;;6.18;4.13;;;;;;;;;;5074802;28;20037;-70
2022/01/15 00:21:34;;;;;;;6.80;5.05;;;;;;;;;;5075385;28;20016;-66
2022/01/15 00:24:01;;;;;;;4.40;4.00;;;;;;;;;;5075482;28;20036;-70
2022/01/15 00:26:27;;;;;;;6.97;4.00;;;;;;;;;;5073477;28;20051;-66
2022/01/15 00:28:53;;;;;;;5.72;4.80;;;;;;;;;;5068919;28;20024;-71
2022/01/15 00:31:19;;;;;;;5.35;4.07;;;;;;;;;;5057427;28;20032;-72
2022/01/15 00:33:45;;;;;;;6.50;4.60;;;;;;;;;;5074221;28;20456;-70
2022/01/15 00:36:11;;;;;;;5.97;4.65;;;;;;;;;;5074940;28;20021;-70
2022/01/15 00:38:37;;;;;;;6.55;4.53;;;;;;;;;;5075147;28;20029;-68
2022/01/15 00:41:03;;;;;;;11.38;4.30;;;;;;;;;;5057061;28;20021;-70
2022/01/15 00:43:29;;;;;;;5.80;4.53;;;;;;;;;;5057222;28;20609;-68
2022/01/15 00:45:58;;;;;;;4.65;4.05;;;;;;;;;;5074837;28;20081;-66
2022/01/15 00:48:24;;;;;;;5.03;4.53;;;;;;;;;;5074627;28;20023;-72
2022/01/15 00:50:50;;;;;;;4.20;3.80;;;;;;;;;;5074956;28;20036;-68
2022/01/15 00:53:17;;;;;;;9.20;4.75;;;;;;;;;;5075353;28;20024;-69
2022/01/15 00:55:43;;;;;;;7.65;4.32;;;;;;;;;;5074367;28;20134;-66
2022/01/15 00:58:09;;;;;;;6.22;4.88;;;;;;;;;;5075121;28;20483;-69
2022/01/15 01:00:35;;;;;;;5.63;4.05;;;;;;;;;;5074043;28;20020;-70
2022/01/15 01:03:01;;;;;;;5.43;4.88;;;;;;;;;;5070626;28;20036;-71
2022/01/15 01:05:27;;;;;;;6.03;4.15;;;;;;;;;;5054428;28;20064;-68
2022/01/15 01:07:53;;;;;;;6.15;4.45;;;;;;;;;;5056416;28;20031;-70
2022/01/15 01:23:42;;;;;;;4.82;4.13;;;;;;;;;;5074929;28;20067;-71
2022/01/15 01:26:13;;;;;;;5.05;3.78;;;;;;;;;;5074899;28;20036;-68
2022/01/15 01:28:44;;;;;;;6.72;4.65;;;;;;;;;;5056496;28;20058;-69
2022/01/15 01:31:22;;;;;;;4.63;3.95;;;;;;;;;;5053462;28;20037;-68
2022/01/15 01:33:52;;;;;;;5.18;3.95;;;;;;;;;;5053603;28;20044;-70
2022/01/15 01:36:26;;;;;;;5.63;4.45;;;;;;;;;;5036996;28;20064;-65
2022/01/15 01:38:59;;;;;;;5.05;3.78;;;;;;;;;;5054008;28;20036;-71
2022/01/15 01:41:34;;;;;;;6.85;4.82;;;;;;;;;;5054099;28;20063;-67
2022/01/15 01:44:02;;;;;;;4.40;4.00;;;;;;;;;;5053927;28;20446;-70
2022/01/15 01:48:55;;;;;;;4.70;3.92;;;;;;;;;;5053428;28;20565;-71
2022/01/15 01:51:23;;;;;;;6.10;4.47;;;;;;;;;;5053854;28;20044;-67
2022/01/15 01:53:50;;;;;;;4.60;3.95;;;;;;;;;;5053692;28;20143;-71
2022/01/15 01:56:17;;;;;;;4.30;3.80;;;;;;;;;;5053635;28;20033;-65
2022/01/15 01:58:43;;;;;;;4.97;3.90;;;;;;;;;;5054153;28;20032;-68
2022/01/15 02:01:09;;;;;;;4.80;3.95;;;;;;;;;;5053466;28;20025;-66
2022/01/15 02:03:37;;;;;;;6.07;3.90;;;;;;;;;;5053333;28;20104;-67
2022/01/15 02:06:04;;;;;;;6.50;4.90;;;;;;;;;;5036007;28;20035;-67
2022/01/15 02:08:33;;;;;;;7.07;3.90;;;;;;;;;;5052943;28;20040;-72
2022/01/15 02:10:59;;;;;;;4.53;3.80;;;;;;;;;;5062637;28;20365;-66
2022/01/15 02:13:25;;;;;;;4.65;3.58;;;;;;;;;;5093537;28;20031;-72
2022/01/15 02:15:51;;;;;;;5.38;4.32;;;;;;;;;;5092839;28;20039;-72
2022/01/15 02:18:18;;;;;;;3.67;3.30;;;;;;;;;;5092912;28;20463;-71
2022/01/15 02:23:33;;;;;;;12.27;4.07;;;;;;;;;;5051545;28;20074;-72
2022/01/15 02:26:00;;;;;;;5.20;3.50;;;;;;;;;;5051472;28;20116;-73
2022/01/15 02:28:30;;;;;;;3.92;3.38;;;;;;;;;;5033712;28;20025;-72
2022/01/15 02:30:58;;;;;;;6.93;3.92;;;;;;;;;;5051674;28;20032;-71
2022/01/15 02:33:23;;;;;;;4.50;3.70;;;;;;;;;;5033701;28;20377;-78
2022/01/15 02:35:50;;;;;;;8.23;5.78;;;;;;;;;;5052137;28;20522;-77
2022/01/15 02:38:16;;;;;;;11.82;8.82;;;;;;;;;;5066465;28;20025;-71
2022/01/15 02:40:42;;;;;;;14.35;9.85;;;;;;;;;;5071292;28;20070;-73
2022/01/15 02:43:11;;;;;;;14.27;8.80;;;;;;;;;;5071545;28;20073;-72
2022/01/15 02:45:41;;;;;;;8.80;7.68;;;;;;;;;;5054576;28;20320;-72
2022/01/15 02:48:17;;;;;;;9.73;6.90;;;;;;;;;;5072832;28;20021;-72
2022/01/15 02:50:44;;;;;;;7.72;6.75;;;;;;;;;;5072372;28;20613;-72
2022/01/15 02:53:11;;;;;;;10.63;5.70;;;;;;;;;;5061040;28;20032;-72
2022/01/15 02:55:44;;;;;;;6.38;5.13;;;;;;;;;;5052274;28;20056;-72
2022/01/15 02:58:10;;;;;;;9.98;5.88;;;;;;;;;;5052371;28;20552;-72
2022/01/15 03:00:37;;;;;;;5.13;4.63;;;;;;;;;;5052809;28;20025;-71
2022/01/15 03:03:03;;;;;;;5.38;4.85;;;;;;;;;;5069071;28;20025;-72
2022/01/15 03:05:29;;;;;;;5.00;4.05;;;;;;;;;;5072019;28;20144;-71
2022/01/15 03:07:55;;;;;;;6.20;3.95;;;;;;;;;;5071942;28;20099;-72
2022/01/15 03:10:21;;;;;;;4.90;4.07;;;;;;;;;;5072615;28;20383;-72
2022/01/15 03:12:47;;;;;;;4.65;3.95;;;;;;;;;;5072575;28;20035;-72
2022/01/15 03:15:19;;;;;;;4.20;3.80;;;;;;;;;;5071963;28;20352;-73
2022/01/15 03:17:45;;;;;;;5.03;3.78;;;;;;;;;;5071819;28;20028;-72
2022/01/15 03:20:12;;;;;;;3.92;3.53;;;;;;;;;;5071970;28;20013;-72
2022/01/15 03:22:38;;;;;;;3.92;3.30;;;;;;;;;;5054562;28;20027;-72
2022/01/15 03:25:05;;;;;;;3.42;2.97;;;;;;;;;;5050884;28;20036;-72
2022/01/15 03:27:31;;;;;;;3.20;2.90;;;;;;;;;;5071831;28;20025;-72
2022/01/15 03:29:57;;;;;;;4.25;2.88;;;;;;;;;;5072250;28;20039;-72
2022/01/15 03:32:23;;;;;;;3.65;3.10;;;;;;;;;;5072416;28;20025;-73
2022/01/15 03:34:49;;;;;;;3.20;2.67;;;;;;;;;;5071690;28;20035;-73
2022/01/15 03:37:15;;;;;;;3.42;3.10;;;;;;;;;;5072180;28;20027;-72
2022/01/15 03:39:41;;;;;;;2.63;2.42;;;;;;;;;;5072129;28;20115;-73
2022/01/15 03:42:13;;;;;;;4.25;2.85;;;;;;;;;;5072116;28;20037;-72
2022/01/15 03:44:41;;;;;;;2.70;2.45;;;;;;;;;;5071796;28;20029;-73
2022/01/15 03:47:07;;;;;;;2.80;2.50;;;;;;;;;;5072136;28;20025;-73
2022/01/15 03:49:33;;;;;;;3.40;2.30;;;;;;;;;;5071627;28;20013;-72
2022/01/15 03:51:59;;;;;;;2.88;2.38;;;;;;;;;;5053438;28;20437;-73
2022/01/15 03:54:25;;;;;;;2.30;2.05;;;;;;;;;;5071917;28;20056;-72
2022/01/15 03:56:50;;;;;;;2.35;2.15;;;;;;;;;;5054266;28;20510;-72
2022/01/15 03:59:17;;;;;;;2.53;2.20;;;;;;;;;;5070502;28;20067;-70
2022/01/15 04:01:43;;;;;;;2.08;1.88;;;;;;;;;;5071944;28;20021;-72
2022/01/15 04:04:09;;;;;;;2.38;2.17;;;;;;;;;;5070125;28;20029;-73
2022/01/15 04:06:35;;;;;;;3.05;2.60;;;;;;;;;;5071923;28;20029;-73
2022/01/15 04:09:01;;;;;;;2.10;2.00;;;;;;;;;;5073240;28;20035;-73
2022/01/15 04:11:27;;;;;;;2.17;1.98;;;;;;;;;;5075804;28;20020;-71
2022/01/15 04:13:53;;;;;;;2.58;1.95;;;;;;;;;;5075576;28;20074;-72
2022/01/15 04:16:19;;;;;;;2.55;2.35;;;;;;;;;;5076227;28;20490;-71
2022/01/15 04:18:45;;;;;;;2.75;1.85;;;;;;;;;;5075454;28;20105;-73
2022/01/15 04:21:11;;;;;;;3.35;2.15;;;;;;;;;;5076358;28;20020;-73
2022/01/15 04:23:38;;;;;;;5.10;1.90;;;;;;;;;;5075834;28;20631;-73
2022/01/15 04:26:04;;;;;;;2.17;1.90;;;;;;;;;;5057470;28;20752;-74
2022/01/15 04:28:34;;;;;;;26.52;2.53;;;;;;;;;;5075636;28;20070;-71
2022/01/15 04:31:05;;;;;;;6.82;2.33;;;;;;;;;;5060731;28;20475;-72
2022/01/15 04:33:35;;;;;;;6.63;2.10;;;;;;;;;;5037990;28;20422;-73
2022/01/15 04:36:01;;;;;;;6.95;2.20;;;;;;;;;;5055851;28;20426;-73
2022/01/15 04:38:28;;;;;;;6.57;1.83;;;;;;;;;;5055725;28;20491;-73
2022/01/15 04:40:54;;;;;;;9.52;2.00;;;;;;;;;;5055938;28;20025;-72
2022/01/15 04:43:20;;;;;;;3.95;1.65;;;;;;;;;;5055833;28;20033;-73
2022/01/15 04:45:46;;;;;;;6.50;2.10;;;;;;;;;;5061400;28;20036;-72
2022/01/15 04:48:12;;;;;;;5.10;1.90;;;;;;;;;;5075490;28;20036;-73
2022/01/15 04:50:38;;;;;;;3.20;2.10;;;;;;;;;;5075271;28;20032;-71
2022/01/15 04:53:04;;;;;;;2.53;1.90;;;;;;;;;;5075736;28;20105;-69
2022/01/15 04:55:31;;;;;;;10.35;1.75;;;;;;;;;;5075120;28;20044;-71
2022/01/15 04:57:57;;;;;;;2.33;1.70;;;;;;;;;;5075818;28;20043;-72
2022/01/15 05:00:23;;;;;;;4.45;1.80;;;;;;;;;;5075120;28;20185;-74
2022/01/15 05:02:49;;;;;;;2.67;1.63;;;;;;;;;;5072743;28;20020;-72
2022/01/15 05:05:15;;;;;;;6.00;1.80;;;;;;;;;;5054814;28;20082;-71
2022/01/15 05:07:42;;;;;;;2.60;2.05;;;;;;;;;;5055438;28;20033;-68
2022/01/15 05:10:09;;;;;;;2.15;1.90;;;;;;;;;;5073206;28;20039;-68
2022/01/15 05:12:46;;;;;;;2.08;1.50;;;;;;;;;;5093780;28;20024;-69
2022/01/15 05:15:13;;;;;;;2.40;1.50;;;;;;;;;;5094951;28;20103;-72
2022/01/15 05:17:39;;;;;;;1.67;1.40;;;;;;;;;;5076657;28;20103;-70
2022/01/15 05:20:06;;;;;;;2.80;1.50;;;;;;;;;;5073489;28;20090;-73
2022/01/15 05:22:34;;;;;;;5.97;1.70;;;;;;;;;;5075091;28;20052;-73
2022/01/15 05:25:00;;;;;;;2.05;1.55;;;;;;;;;;5074693;28;20448;-72
2022/01/15 05:27:26;;;;;;;2.78;1.50;;;;;;;;;;5075617;28;20017;-71
2022/01/15 05:29:53;;;;;;;4.53;1.40;;;;;;;;;;5074687;28;20029;-72
2022/01/15 05:32:19;;;;;;;2.67;1.73;;;;;;;;;;5074692;28;20035;-67
2022/01/15 05:34:48;;;;;;;1.40;1.30;;;;;;;;;;5074295;28;20044;-67
2022/01/15 05:37:14;;;;;;;3.42;1.80;;;;;;;;;;5074761;28;20029;-71
2022/01/15 05:39:40;;;;;;;1.58;1.48;;;;;;;;;;5074540;28;20016;-72
2022/01/15 05:42:06;;;;;;;1.63;1.40;;;;;;;;;;5056918;28;20435;-71
2022/01/15 05:44:34;;;;;;;1.77;1.50;;;;;;;;;;5074413;28;20027;-69
2022/01/15 05:47:00;;;;;;;3.10;1.90;;;;;;;;;;5074266;28;20020;-71
2022/01/15 05:49:26;;;;;;;1.48;1.30;;;;;;;;;;5074311;28;20021;-72
2022/01/15 05:51:52;;;;;;;3.38;1.40;;;;;;;;;;5074933;28;20073;-72
2022/01/15 05:54:18;;;;;;;1.88;1.15;;;;;;;;;;5074050;28;20519;-72
2022/01/15 05:56:44;;;;;;;4.65;1.92;;;;;;;;;;5073959;28;20025;-70
2022/01/15 05:59:10;;;;;;;1.70;1.60;;;;;;;;;;5074071;28;20040;-72
2022/01/15 06:01:37;;;;;;;1.92;1.73;;;;;;;;;;5074290;28;20069;-71
2022/01/15 06:04:03;;;;;;;1.60;1.45;;;;;;;;;;5073654;28;20043;-73
2022/01/15 06:06:29;;;;;;;2.35;1.58;;;;;;;;;;5055560;28;20064;-72
2022/01/15 06:08:55;;;;;;;2.50;1.35;;;;;;;;;;5064613;28;20028;-71
2022/01/15 06:11:23;;;;;;;1.40;1.20;;;;;;;;;;5054424;28;20037;-71
2022/01/15 06:13:49;;;;;;;5.00;1.17;;;;;;;;;;5054143;28;20108;-73
2022/01/15 06:16:16;;;;;;;2.45;1.40;;;;;;;;;;5053978;28;20541;-72
2022/01/15 06:18:42;;;;;;;3.53;1.20;;;;;;;;;;5036019;28;20020;-73
2022/01/15 06:21:08;;;;;;;2.20;1.70;;;;;;;;;;5054104;28;20399;-72
2022/01/15 06:23:34;;;;;;;1.27;1.17;;;;;;;;;;5035987;28;20379;-73
2022/01/15 06:26:00;;;;;;;1.67;1.58;;;;;;;;;;5053312;28;20543;-72
2022/01/15 06:28:26;;;;;;;1.65;1.23;;;;;;;;;;5036463;28;20116;-72
2022/01/15 06:30:52;;;;;;;1.40;1.30;;;;;;;;;;5035465;28;20029;-73
2022/01/15 06:33:18;;;;;;;1.30;1.20;;;;;;;;;;5052781;28;20033;-71
2022/01/15 06:35:44;;;;;;;1.63;1.38;;;;;;;;;;5053810;28;20163;-67
2022/01/15 06:38:10;;;;;;;1.88;1.20;;;;;;;;;;5053912;28;20075;-72
2022/01/15 06:40:36;;;;;;;1.55;1.38;;;;;;;;;;5053446;28;20029;-73
2022/01/15 06:43:04;;;;;;;0.90;0.90;;;;;;;;;;5054014;28;20070;-73
2022/01/15 06:45:30;;;;;;;2.13;1.35;;;;;;;;;;5053557;28;20029;-73
2022/01/15 06:47:57;;;;;;;1.75;1.20;;;;;;;;;;5035091;28;20053;-71
2022/01/15 06:50:24;;;;;;;1.65;1.52;;;;;;;;;;5061224;28;20064;-72
2022/01/15 06:52:50;;;;;;;1.10;1.00;;;;;;;;;;5073463;28;20050;-72
2022/01/15 06:55:16;;;;;;;1.50;1.40;;;;;;;;;;5055120;28;20094;-72
2022/01/15 06:57:42;;;;;;;1.30;1.20;;;;;;;;;;5055543;28;20151;-72
2022/01/15 07:00:09;;;;;;;1.58;1.48;;;;;;;;;;5055206;28;20189;-69
2022/01/15 07:02:35;;;;;;;1.30;1.20;;;;;;;;;;5072787;28;20028;-71
2022/01/15 07:05:01;;;;;;;1.60;1.50;;;;;;;;;;5072734;28;20044;-72
2022/01/15 07:07:27;;;;;;;2.33;1.30;;;;;;;;;;5073571;28;20039;-71
2022/01/15 07:09:53;;;;;;;4.05;1.70;;;;;;;;;;5071392;28;20108;-70
2022/01/15 07:12:19;;;;;;;2.80;1.67;;;;;;;;;;5073906;28;20031;-72
2022/01/15 07:14:45;;;;;;;1.80;1.60;;;;;;;;;;5073402;28;20047;-73
2022/01/15 07:17:11;;;;;;;1.23;1.13;;;;;;;;;;5072792;28;20033;-72
2022/01/15 07:19:37;;;;;;;1.63;1.52;;;;;;;;;;5054868;28;20047;-73
2022/01/15 07:22:04;;;;;;;1.60;1.50;;;;;;;;;;5065567;28;20051;-72
2022/01/15 07:24:30;;;;;;;8.52;1.75;;;;;;;;;;5052335;28;20025;-73
2022/01/15 07:26:56;;;;;;;3.50;1.92;;;;;;;;;;5053543;28;20032;-73
2022/01/15 07:29:24;;;;;;;1.85;1.73;;;;;;;;;;5052702;28;20029;-73
2022/01/15 07:31:51;;;;;;;2.55;1.65;;;;;;;;;;5052999;28;20387;-72
2022/01/15 07:34:17;;;;;;;5.32;1.83;;;;;;;;;;5052433;28;20036;-70
2022/01/15 07:36:43;;;;;;;3.35;1.80;;;;;;;;;;5052925;28;20071;-72
2022/01/15 07:39:09;;;;;;;5.25;2.20;;;;;;;;;;5052507;28;20405;-69
2022/01/15 07:41:36;;;;;;;9.63;2.13;;;;;;;;;;5037145;28;20385;-72
2022/01/15 07:44:02;;;;;;;6.13;2.00;;;;;;;;;;5037686;28;20079;-72
2022/01/15 07:46:28;;;;;;;7.97;2.10;;;;;;;;;;5056371;28;20044;-72
2022/01/15 07:48:54;;;;;;;4.95;2.20;;;;;;;;;;5056220;28;20017;-64
2022/01/15 07:51:20;;;;;;;6.28;2.95;;;;;;;;;;5056183;28;20028;-68
2022/01/15 07:53:46;;;;;;;6.32;2.50;;;;;;;;;;5053637;28;20029;-68
2022/01/15 07:56:12;;;;;;;32.17;4.05;;;;;;;;;;5054496;28;20068;-65
2022/01/15 07:58:38;;;;;;;20.15;4.78;;;;;;;;;;5055272;28;20032;-66
2022/01/15 08:01:05;;;;;;;37.75;5.45;;;;;;;;;;5056788;28;20086;-66
2022/01/15 08:03:32;;;;;;;46.35;6.07;;;;;;;;;;5055291;28;20395;-69
2022/01/15 08:05:58;;;;;;;43.90;5.75;;;;;;;;;;5054014;28;20025;-73
2022/01/15 08:08:24;;;;;;;21.42;7.00;;;;;;;;;;5054974;28;20036;-71
2022/01/15 08:10:50;;;;;;;23.42;9.75;;;;;;;;;;5059773;28;20029;-71
2022/01/15 08:13:16;;;;;;;16.38;9.75;;;;;;;;;;5056090;28;20021;-71
2022/01/15 08:15:43;;;;;;;26.02;10.45;;;;;;;;;;5055640;28;20023;-70
2022/01/15 08:18:09;;;;;;;35.83;9.73;;;;;;;;;;5055296;28;20047;-72
2022/01/15 08:20:35;;;;;;;34.05;10.52;;;;;;;;;;5053618;28;20107;-69
2022/01/15 08:23:01;;;;;;;26.63;9.98;;;;;;;;;;5055410;28;20096;-68
2022/01/15 08:25:27;;;;;;;29.20;9.55;;;;;;;;;;5054993;28;20100;-69
2022/01/15 08:27:54;;;;;;;14.43;9.35;;;;;;;;;;5053436;28;20071;-67
2022/01/15 08:30:20;;;;;;;33.03;9.70;;;;;;;;;;5053412;28;20420;-73
2022/01/15 08:32:47;;;;;;;24.15;9.32;;;;;;;;;;5054857;28;20031;-68
2022/01/15 08:35:13;;;;;;;17.90;9.63;;;;;;;;;;5054964;28;20055;-72
2022/01/15 08:37:39;;;;;;;20.10;9.48;;;;;;;;;;5054998;28;20066;-69
2022/01/15 08:40:09;;;;;;;16.20;9.43;;;;;;;;;;5054350;28;20036;-68
2022/01/15 08:42:36;;;;;;;14.77;9.52;;;;;;;;;;5054418;28;20033;-71
2022/01/15 08:45:03;;;;;;;20.10;9.55;;;;;;;;;;5038868;28;20590;-68
2022/01/15 08:47:29;;;;;;;24.10;9.15;;;;;;;;;;5051491;28;20471;-69
2022/01/15 08:49:55;;;;;;;21.75;10.18;;;;;;;;;;5054127;28;20033;-69
2022/01/15 08:52:22;;;;;;;13.30;9.88;;;;;;;;;;5054566;28;20029;-70
2022/01/15 08:54:48;;;;;;;27.38;10.55;;;;;;;;;;5051927;28;20632;-68
2022/01/15 08:57:14;;;;;;;17.13;9.98;;;;;;;;;;5052749;28;20025;-68
2022/01/15 08:59:40;;;;;;;19.95;10.43;;;;;;;;;;5053126;28;20025;-70
2022/01/15 09:02:06;;;;;;;16.20;10.18;;;;;;;;;;5053859;28;20083;-72
2022/01/15 09:04:32;;;;;;;16.13;9.70;;;;;;;;;;5052842;28;20039;-71
2022/01/15 09:06:58;;;;;;;18.02;10.40;;;;;;;;;;5054862;28;20492;-71
2022/01/15 09:09:24;;;;;;;24.83;11.40;;;;;;;;;;5051512;28;20350;-73
2022/01/15 09:11:50;;;;;;;24.88;11.10;;;;;;;;;;5051375;28;20087;-69
2022/01/15 09:14:16;;;;;;;32.80;12.30;;;;;;;;;;5052232;28;20094;-69
2022/01/15 09:16:42;;;;;;;19.08;11.73;;;;;;;;;;5052961;28;20033;-73
2022/01/15 09:19:09;;;;;;;22.23;11.65;;;;;;;;;;5054777;28;20071;-74
2022/01/15 09:21:35;;;;;;;22.25;11.10;;;;;;;;;;5053867;28;20393;-69
2022/01/15 09:24:01;;;;;;;24.20;11.52;;;;;;;;;;5052300;28;20124;-74
2022/01/15 09:30:12;;;;;;;20.00;11.73;;;;;;;;;;5052084;28;20132;-69
2022/01/15 09:31:59;;;;;;;27.38;13.48;;;;;;;;;;5054279;28;20058;-66
2022/01/15 09:34:26;;;;;;;29.23;13.23;;;;;;;;;;5053932;28;20044;-67
2022/01/15 09:36:52;;;;;;;28.83;13.05;;;;;;;;;;5054176;28;20072;-70
2022/01/15 09:39:23;;;;;;;45.42;12.93;;;;;;;;;;5052424;28;20397;-65
2022/01/15 09:41:51;;;;;;;31.38;12.32;;;;;;;;;;5054517;28;20055;-68
2022/01/15 09:44:18;;;;;;;24.55;12.93;;;;;;;;;;5054169;28;20021;-69
2022/01/15 09:46:47;;;;;;;36.70;13.05;;;;;;;;;;5052437;28;20036;-71
2022/01/15 09:49:18;;;;;;;37.22;12.88;;;;;;;;;;5054101;28;20203;-71
2022/01/15 09:51:44;;;;;;;33.10;12.80;;;;;;;;;;5050640;28;20107;-70
2022/01/15 09:54:11;;;;;;;34.35;13.93;;;;;;;;;;5055841;28;20036;-67
2022/01/15 09:56:37;;;;;;;28.95;13.25;;;;;;;;;;5073936;28;20077;-70
2022/01/15 09:59:03;;;;;;;39.03;13.65;;;;;;;;;;5072599;28;20375;-69
2022/01/15 10:01:30;;;;;;;30.80;13.52;;;;;;;;;;5053747;28;20025;-70
2022/01/15 10:03:56;;;;;;;25.20;13.27;;;;;;;;;;5060770;28;20029;-71
2022/01/15 10:06:23;;;;;;;31.70;13.93;;;;;;;;;;5071927;28;20127;-70
2022/01/15 10:08:59;;;;;;;32.13;15.10;;;;;;;;;;5060085;28;20032;-72
2022/01/15 10:11:44;;;;;;;34.83;15.25;;;;;;;;;;5052129;28;20025;-68
2022/01/15 10:14:25;;;;;;;27.23;14.57;;;;;;;;;;5062478;28;20610;-70
2022/01/15 10:16:51;;;;;;;25.10;14.27;;;;;;;;;;5061412;28;20025;-69
2022/01/15 10:19:38;;;;;;;34.53;14.57;;;;;;;;;;5046803;28;20083;-73
2022/01/15 10:22:11;;;;;;;26.60;14.65;;;;;;;;;;5071966;28;20067;-68
2022/01/15 10:24:38;;;;;;;23.35;14.35;;;;;;;;;;5059083;28;20024;-67
2022/01/15 10:27:23;;;;;;;26.52;14.88;;;;;;;;;;5066230;28;20031;-65
2022/01/15 10:30:08;;;;;;;26.70;14.00;;;;;;;;;;5061953;28;20267;-65
2022/01/15 10:32:41;;;;;;;34.47;15.68;;;;;;;;;;5053845;28;20025;-74
2022/01/15 10:35:12;;;;;;;23.10;14.85;;;;;;;;;;5057283;28;20468;-75
2022/01/15 10:37:47;;;;;;;25.08;14.65;;;;;;;;;;5075496;28;20015;-74
2022/01/15 10:40:13;;;;;;;31.13;14.57;;;;;;;;;;5078831;28;20063;-73
2022/01/15 10:42:40;;;;;;;23.83;15.00;;;;;;;;;;5053963;28;20032;-65
2022/01/15 10:45:09;;;;;;;28.27;15.15;;;;;;;;;;5063121;28;20148;-65
2022/01/15 10:47:39;;;;;;;36.50;15.90;;;;;;;;;;5064981;28;20039;-67
2022/01/15 10:50:06;;;;;;;30.95;15.32;;;;;;;;;;5065204;28;20021;-67
2022/01/15 10:52:32;;;;;;;35.10;14.85;;;;;;;;;;5059700;28;20400;-66
2022/01/15 10:55:06;;;;;;;21.50;13.52;;;;;;;;;;5063123;28;20036;-70
2022/01/15 10:57:32;;;;;;;25.58;14.30;;;;;;;;;;5044705;28;20404;-68
2022/01/15 10:59:59;;;;;;;24.35;14.38;;;;;;;;;;5066598;28;20511;-69
2022/01/15 11:02:25;;;;;;;26.50;14.27;;;;;;;;;;5046688;28;20078;-69
2022/01/15 11:04:51;;;;;;;34.80;15.40;;;;;;;;;;5057262;28;20070;-67
2022/01/15 11:07:18;;;;;;;23.40;14.30;;;;;;;;;;5059279;28;20107;-64
2022/01/15 11:09:45;;;;;;;23.90;13.90;;;;;;;;;;5056433;28;20434;-68
2022/01/15 11:12:11;;;;;;;23.98;14.98;;;;;;;;;;5059139;28;20025;-63
2022/01/15 11:14:37;;;;;;;25.50;14.75;;;;;;;;;;5059482;28;20368;-69
2022/01/15 11:17:04;;;;;;;23.88;14.52;;;;;;;;;;5064995;28;20036;-70
2022/01/15 11:19:30;;;;;;;24.08;13.57;;;;;;;;;;5062887;28;20031;-72
2022/01/15 11:21:57;;;;;;;25.75;13.55;;;;;;;;;;5057689;28;20357;-71
2022/01/15 11:24:24;;;;;;;26.27;13.70;;;;;;;;;;5061335;28;20032;-71
2022/01/15 11:27:00;;;;;;;24.45;13.80;;;;;;;;;;5063665;28;20036;-71
2022/01/15 11:29:27;;;;;;;25.17;14.02;;;;;;;;;;5064636;28;20024;-71
2022/01/15 11:31:56;;;;;;;28.30;13.70;;;;;;;;;;5043642;28;20032;-69
2022/01/15 11:34:23;;;;;;;25.55;13.73;;;;;;;;;;5059464;28;20021;-70
2022/01/15 11:36:49;;;;;;;31.90;14.90;;;;;;;;;;5058321;28;20051;-71
2022/01/15 11:39:22;;;;;;;24.95;13.32;;;;;;;;;;5058909;28;20443;-72
2022/01/15 11:41:52;;;;;;;25.80;13.43;;;;;;;;;;5063361;28;20039;-70
2022/01/15 11:44:35;;;;;;;32.38;13.45;;;;;;;;;;5059347;28;20021;-72
2022/01/15 11:47:13;;;;;;;26.73;13.95;;;;;;;;;;5055398;28;20032;-71
2022/01/15 11:49:44;;;;;;;26.30;14.30;;;;;;;;;;5065443;28;20032;-69
2022/01/15 11:52:14;;;;;;;23.67;13.02;;;;;;;;;;5052103;28;20029;-70
2022/01/15 11:54:52;;;;;;;28.60;13.77;;;;;;;;;;5051837;28;20084;-71
2022/01/15 11:57:22;;;;;;;24.45;13.98;;;;;;;;;;5041556;28;20048;-70
2022/01/15 11:59:49;;;;;;;41.17;13.65;;;;;;;;;;5035468;28;20124;-69
2022/01/15 12:02:30;;;;;;;57.05;12.82;;;;;;;;;;5046976;28;20032;-70
2022/01/15 12:05:15;;;;;;;37.88;11.35;;;;;;;;;;5058822;28;20040;-69
2022/01/15 12:07:41;;;;;;;29.77;10.85;;;;;;;;;;5056100;28;20074;-69
2022/01/15 12:10:11;;;;;;;21.13;11.13;;;;;;;;;;5059274;28;20033;-71
2022/01/15 12:12:51;;;;;;;20.63;10.57;;;;;;;;;;5055701;28;20043;-70
2022/01/15 12:15:24;;;;;;;22.65;10.63;;;;;;;;;;5035650;28;20422;-71
2022/01/15 12:17:51;;;;;;;21.90;11.10;;;;;;;;;;5068543;28;20063;-70
2022/01/15 12:20:17;;;;;;;19.10;10.88;;;;;;;;;;5054010;28;20059;-71
2022/01/15 12:22:47;;;;;;;18.02;11.00;;;;;;;;;;5065368;28;20057;-71
2022/01/15 12:25:19;;;;;;;23.40;11.23;;;;;;;;;;5054103;28;20025;-67
2022/01/15 12:27:45;;;;;;;17.75;10.30;;;;;;;;;;5060839;28;20024;-69
2022/01/15 12:30:11;;;;;;;27.48;11.00;;;;;;;;;;5065981;28;20032;-69
2022/01/15 12:32:40;;;;;;;16.52;10.48;;;;;;;;;;5061906;28;20029;-70
2022/01/15 12:35:14;;;;;;;31.52;11.07;;;;;;;;;;5058679;28;20028;-69
2022/01/15 12:38:10;;;;;;;24.48;10.45;;;;;;;;;;5056366;28;20023;-68
2022/01/15 12:40:37;;;;;;;20.80;10.05;;;;;;;;;;5053414;28;20036;-69
2022/01/15 12:43:11;;;;;;;17.05;10.50;;;;;;;;;;5063324;28;20036;-69
2022/01/15 12:45:38;;;;;;;17.00;9.90;;;;;;;;;;5075739;28;20111;-66
2022/01/15 12:48:05;;;;;;;26.25;10.48;;;;;;;;;;5063405;28;20036;-68
2022/01/15 12:50:42;;;;;;;16.77;9.82;;;;;;;;;;5064407;28;20067;-70
2022/01/15 12:53:07;;;;;;;18.52;10.52;;;;;;;;;;5061059;28;20032;-69
2022/01/15 12:55:35;;;;;;;20.92;9.90;;;;;;;;;;5066365;28;20052;-68
2022/01/15 12:58:02;;;;;;;23.13;9.95;;;;;;;;;;5062364;28;20028;-70
2022/01/15 13:00:29;;;;;;;18.58;9.85;;;;;;;;;;5051374;28;20091;-70
2022/01/15 13:02:59;;;;;;;20.58;10.27;;;;;;;;;;5036834;28;20085;-69
2022/01/15 13:05:30;;;;;;;16.98;9.27;;;;;;;;;;5059326;28;20415;-69
2022/01/15 13:07:57;;;;;;;16.75;10.30;;;;;;;;;;5065491;28;20032;-66
2022/01/15 13:10:32;;;;;;;17.45;10.40;;;;;;;;;;5074957;28;20031;-67
2022/01/15 13:12:58;;;;;;;23.25;10.13;;;;;;;;;;5064267;28;20044;-67
2022/01/15 13:15:25;;;;;;;21.25;10.23;;;;;;;;;;5073333;28;20407;-69
2022/01/15 13:17:51;;;;;;;16.45;10.48;;;;;;;;;;5063307;28;20021;-69
2022/01/15 13:20:29;;;;;;;20.42;9.75;;;;;;;;;;5051856;28;20029;-69
2022/01/15 13:22:55;;;;;;;16.48;10.27;;;;;;;;;;5055005;28;20025;-69
2022/01/15 13:25:22;;;;;;;16.65;9.25;;;;;;;;;;5044391;28;20028;-67
2022/01/15 13:27:48;;;;;;;15.30;9.68;;;;;;;;;;5060278;28;20025;-68
2022/01/15 13:30:14;;;;;;;17.30;9.27;;;;;;;;;;5039249;28;20032;-67
2022/01/15 13:32:50;;;;;;;25.08;9.15;;;;;;;;;;5060812;28;20119;-69
2022/01/15 13:35:19;;;;;;;19.90;9.68;;;;;;;;;;5063000;28;20539;-67
2022/01/15 13:37:52;;;;;;;15.68;8.70;;;;;;;;;;5067088;28;20032;-67
2022/01/15 13:40:47;;;;;;;13.35;8.55;;;;;;;;;;5057628;28;20108;-67
2022/01/15 13:43:25;;;;;;;17.08;9.77;;;;;;;;;;5037131;28;20039;-70
2022/01/15 13:45:51;;;;;;;18.08;9.73;;;;;;;;;;5042864;28;20044;-68
2022/01/15 13:48:22;;;;;;;14.45;9.02;;;;;;;;;;5053621;28;20344;-69
2022/01/15 13:53:38;;;;;;;16.40;9.65;;;;;;;;;;5066364;28;20087;-69
2022/01/15 13:56:09;;;;;;;14.15;9.27;;;;;;;;;;5053272;28;20045;-71
2022/01/15 13:58:35;;;;;;;13.45;9.05;;;;;;;;;;5062515;28;20111;-65
2022/01/15 14:01:16;;;;;;;13.35;9.15;;;;;;;;;;5047251;28;20119;-64
2022/01/15 14:03:42;;;;;;;17.55;9.13;;;;;;;;;;5069159;28;20118;-70
2022/01/15 14:06:08;;;;;;;12.05;8.38;;;;;;;;;;5039715;28;20041;-71
2022/01/15 14:08:34;;;;;;;11.68;8.15;;;;;;;;;;5058201;28;20035;-70
2022/01/15 14:11:00;;;;;;;11.27;8.02;;;;;;;;;;5071865;28;20103;-70
2022/01/15 14:13:29;;;;;;;12.63;8.63;;;;;;;;;;5059261;28;20024;-70
2022/01/15 14:15:55;;;;;;;12.10;8.55;;;;;;;;;;5054348;28;20399;-69
2022/01/15 14:18:30;;;;;;;23.90;8.77;;;;;;;;;;5035632;28;20035;-68
2022/01/15 14:23:33;;;;;;;10.52;7.80;;;;;;;;;;5053628;28;20025;-67
2022/01/15 14:26:00;;;;;;;11.55;8.52;;;;;;;;;;5036562;28;20128;-70
2022/01/15 14:28:27;;;;;;;9.88;7.85;;;;;;;;;;5067496;28;20040;-70
2022/01/15 14:30:55;;;;;;;14.75;8.13;;;;;;;;;;5065943;28;20040;-71
2022/01/15 14:33:21;;;;;;;11.02;8.18;;;;;;;;;;5046706;28;20028;-71
2022/01/15 14:35:47;;;;;;;10.02;7.68;;;;;;;;;;5060686;28;20116;-70
2022/01/15 14:38:14;;;;;;;15.15;7.97;;;;;;;;;;5062328;28;20029;-68
2022/01/15 14:40:43;;;;;;;9.63;7.50;;;;;;;;;;5043418;28;20032;-69
2022/01/15 14:43:09;;;;;;;10.38;8.05;;;;;;;;;;5046448;28;20052;-69
2022/01/15 14:45:36;;;;;;;13.27;7.90;;;;;;;;;;5061285;28;20067;-73
2022/01/15 14:48:03;;;;;;;19.13;7.75;;;;;;;;;;5049267;28;20325;-71
2022/01/15 14:50:30;;;;;;;17.10;8.68;;;;;;;;;;5063972;28;20025;-70
2022/01/15 14:52:56;;;;;;;11.23;7.75;;;;;;;;;;5038141;28;20068;-71
2022/01/15 14:55:22;;;;;;;16.88;7.85;;;;;;;;;;5055348;28;20036;-67
2022/01/15 14:57:48;;;;;;;10.70;8.23;;;;;;;;;;5061660;28;20020;-70
2022/01/15 15:00:14;;;;;;;12.40;8.02;;;;;;;;;;5060917;28;20047;-71
2022/01/15 15:02:40;;;;;;;11.25;7.68;;;;;;;;;;5046992;28;20057;-72
2022/01/15 15:05:07;;;;;;;12.00;7.55;;;;;;;;;;5065666;28;20080;-71